SBOSBO ACE / GCRR
Speedbird OnlineSpeedbird Online ACE / GCRR

Lanzarote Airport
08:16 22°C

Location Arrecife, Spain
Latitude: 28.945499
Longitude: -13.6052
Web Airport Website | Wikipedia
Altitude 14 Meter / 46 Feet
Distance 2,755 KM / 1,712 Miles
from London.
Time Zone UTC +1 hours (Atlantic/Canary)
Codes IATA: ACE
ICAO: GCRR
Currency £1 equals EUR 1.15
Runways
RunwayLength (m)Surface
032400Asphalt
212400Asphalt
Radio
TypeDescriptionFrequency
APPCANARIAS APP129.3
ATISATIS118.625
GNDGND121.8
TWRTWR120.7
Live ATC
METAR GCRR 060700Z 01011KT 9999 SCT024 22/18 Q1019
TAF TAF GCRR 060200Z 0603/0703 36015KT 9999 FEW020 TX28/0614Z TN21/0606Z
Weather As Of 06 Oct 2022 08:16
Description Scattered clouds
Wind 20 km/h from North (10°)
Cloud Cover 40%
Precipitation Rain: none, Snow: none
Sunrise 07:49
Sunset 19:34
Lounges Sala VIP Guacimeta , Terminal 1, 2nd floo
Rotations During the last 90 days there were
77 flights from LGW
79 flights to LGW


© 2017-2022 Speedbird Online